createdAt,value
2022-11-25T00:02:35.517Z,115.20
2022-11-25T00:05:37.252Z,107.40
2022-11-25T00:08:40.221Z,110.80
2022-11-25T00:11:42.333Z,104.60
2022-11-25T00:14:43.916Z,106.40
2022-11-25T00:17:45.545Z,106.50
2022-11-25T00:20:47.126Z,103.00
2022-11-25T00:24:07.406Z,99.00
2022-11-25T00:27:08.952Z,101.50
2022-11-25T00:30:10.940Z,111.40
2022-11-25T00:33:12.565Z,98.30
2022-11-25T00:36:19.836Z,76.50
2022-11-25T00:39:23.902Z,97.80
2022-11-25T00:42:44.113Z,104.60
2022-11-25T00:45:45.707Z,95.30
2022-11-25T00:48:47.324Z,100.30
2022-11-25T00:51:48.924Z,97.90
2022-11-25T00:54:51.068Z,73.30
2022-11-25T00:57:52.648Z,103.00
2022-11-25T01:00:54.269Z,107.20
2022-11-25T01:03:56.117Z,107.40
2022-11-25T01:06:59.392Z,105.30
2022-11-25T01:10:00.950Z,103.80
2022-11-25T01:13:02.648Z,110.20
2022-11-25T01:16:06.033Z,109.70
2022-11-25T01:19:08.039Z,104.90
2022-11-25T01:22:09.781Z,100.60
2022-11-25T01:25:11.451Z,102.90
2022-11-25T01:28:13.341Z,103.00
2022-11-25T01:31:17.671Z,101.80
2022-11-25T01:34:21.470Z,102.30
2022-11-25T01:37:23.077Z,100.90
2022-11-25T01:40:24.681Z,102.60
2022-11-25T01:43:27.209Z,98.80
2022-11-25T01:46:36.283Z,96.50
2022-11-25T01:49:44.186Z,95.00
2022-11-25T01:52:50.025Z,91.60
2022-11-25T01:55:58.147Z,98.50
2022-11-25T01:58:59.785Z,91.00
2022-11-25T02:02:01.949Z,91.70
2022-11-25T02:05:08.225Z,87.70
2022-11-25T02:08:10.037Z,97.10
2022-11-25T02:11:13.869Z,93.80
2022-11-25T02:14:17.282Z,92.70
2022-11-25T02:17:19.810Z,92.40
2022-11-25T02:20:22.833Z,94.70
2022-11-25T02:24:20.200Z,94.20
2022-11-25T02:27:22.015Z,94.10
2022-11-25T02:30:23.647Z,94.20
2022-11-25T02:33:26.773Z,92.90
2022-11-25T02:36:30.833Z,103.10
2022-11-25T02:39:32.381Z,93.80
2022-11-25T02:42:34.127Z,100.50
2022-11-25T02:45:50.104Z,101.00
2022-11-25T02:49:08.537Z,103.60
2022-11-25T02:52:11.342Z,102.00
2022-11-25T02:55:12.941Z,101.10
2022-11-25T02:58:15.654Z,106.80
2022-11-25T03:01:17.389Z,103.70
2022-11-25T03:04:19.163Z,101.10
2022-11-25T03:07:20.876Z,111.20
2022-11-25T03:10:22.615Z,99.70
2022-11-25T03:13:24.152Z,103.40
2022-11-25T03:16:25.674Z,103.60
2022-11-25T03:19:27.376Z,96.30
2022-11-25T03:22:29.294Z,104.50
2022-11-25T03:25:31.411Z,74.40
2022-11-25T03:28:32.986Z,104.40
2022-11-25T03:31:34.566Z,103.60
2022-11-25T03:34:36.733Z,105.80
2022-11-25T03:43:43.671Z,97.10
2022-11-25T03:46:45.471Z,87.50
2022-11-25T03:49:47.593Z,91.90
2022-11-25T03:52:49.310Z,89.40
2022-11-25T03:55:51.980Z,87.80
2022-11-25T03:58:55.083Z,84.70
2022-11-25T04:01:57.016Z,87.20
2022-11-25T04:04:58.799Z,81.90
2022-11-25T04:08:00.492Z,87.20
2022-11-25T04:11:02.303Z,87.40
2022-11-25T04:14:06.011Z,89.60
2022-11-25T04:17:07.824Z,78.90
2022-11-25T04:20:11.944Z,89.20
2022-11-25T04:23:14.184Z,87.70
2022-11-25T04:26:20.557Z,93.20
2022-11-25T04:29:22.755Z,93.20
2022-11-25T04:32:24.650Z,93.10
2022-11-25T04:38:29.127Z,115.50
2022-11-25T04:41:32.743Z,116.30
2022-11-25T04:44:34.627Z,118.90
2022-11-25T04:47:36.682Z,123.20
2022-11-25T04:50:38.272Z,118.40
2022-11-25T04:53:45.062Z,129.30
2022-11-25T04:56:47.270Z,122.70
2022-11-25T04:59:49.076Z,119.80
2022-11-25T05:02:50.699Z,124.70
2022-11-25T05:05:55.035Z,120.50
2022-11-25T05:15:01.831Z,104.90
2022-11-25T05:18:03.602Z,108.80
2022-11-25T05:21:32.534Z,109.20
2022-11-25T05:24:34.675Z,116.70
2022-11-25T05:27:37.366Z,117.30
2022-11-25T05:30:44.646Z,114.40
2022-11-25T05:33:46.298Z,111.90
2022-11-25T05:36:49.383Z,110.00
2022-11-25T05:39:51.637Z,105.00
2022-11-25T05:43:22.903Z,103.90
2022-11-25T05:46:24.607Z,106.90
2022-11-25T05:49:29.075Z,98.00
2022-11-25T05:52:31.331Z,99.50
2022-11-25T05:55:33.709Z,94.50
2022-11-25T06:01:38.006Z,100.70
2022-11-25T06:04:39.835Z,109.80
2022-11-25T06:07:41.572Z,98.40
2022-11-25T06:10:43.409Z,101.50
2022-11-25T06:13:45.233Z,104.90
2022-11-25T06:16:47.171Z,106.20
2022-11-25T06:19:55.434Z,107.80
2022-11-25T06:22:58.040Z,104.70
2022-11-25T06:26:11.597Z,114.60
2022-11-25T06:29:14.348Z,117.50
2022-11-25T06:32:17.651Z,122.60
2022-11-25T06:35:42.009Z,120.00
2022-11-25T06:38:49.436Z,133.20
2022-11-25T06:41:51.071Z,121.50
2022-11-25T06:44:53.413Z,118.40
2022-11-25T06:47:55.051Z,109.10
2022-11-25T06:51:23.914Z,113.10
2022-11-25T06:54:25.486Z,102.10
2022-11-25T06:57:27.248Z,101.00
2022-11-25T07:00:28.896Z,81.30
2022-11-25T07:03:31.124Z,99.00
2022-11-25T07:06:33.263Z,96.30
2022-11-25T07:09:34.865Z,90.00
2022-11-25T07:12:36.676Z,91.60
2022-11-25T07:15:38.260Z,96.30
2022-11-25T07:18:40.869Z,100.30
2022-11-25T07:21:44.943Z,100.80
2022-11-25T07:24:46.562Z,104.00
2022-11-25T07:27:48.226Z,92.50
2022-11-25T07:34:20.129Z,94.60
2022-11-25T07:37:21.759Z,98.70
2022-11-25T07:40:23.286Z,96.20
2022-11-25T07:43:24.803Z,99.30
2022-11-25T07:46:35.802Z,96.70
2022-11-25T07:49:37.644Z,94.40
2022-11-25T07:52:40.269Z,104.00
2022-11-25T07:55:41.872Z,99.70
2022-11-25T07:58:46.162Z,92.30
2022-11-25T08:01:50.207Z,90.10
2022-11-25T08:04:51.929Z,90.00
2022-11-25T08:07:53.703Z,83.90
2022-11-25T08:10:55.576Z,89.70
2022-11-25T08:13:57.420Z,85.00
2022-11-25T08:16:59.098Z,92.70
2022-11-25T08:20:00.797Z,81.60
2022-11-25T08:23:05.391Z,84.50
2022-11-25T08:26:10.746Z,83.30
2022-11-25T08:29:15.101Z,78.20
2022-11-25T08:32:16.748Z,74.70
2022-11-25T08:35:19.355Z,79.00
2022-11-25T08:38:21.263Z,82.70
2022-11-25T08:41:35.558Z,78.00
2022-11-25T08:44:37.532Z,78.90
2022-11-25T08:47:39.226Z,76.90
2022-11-25T08:50:46.794Z,76.40
2022-11-25T08:53:50.618Z,73.80
2022-11-25T08:56:52.257Z,68.40
2022-11-25T08:59:53.873Z,53.40
2022-11-25T09:02:56.018Z,73.30
2022-11-25T09:09:01.079Z,79.80
2022-11-25T09:12:03.278Z,78.50
2022-11-25T09:15:05.446Z,84.20
2022-11-25T09:18:09.134Z,76.90
2022-11-25T09:21:14.614Z,84.20
2022-11-25T09:24:16.325Z,85.80
2022-11-25T09:27:17.888Z,85.80
2022-11-25T09:30:19.577Z,79.40
2022-11-25T09:33:21.234Z,82.20
2022-11-25T09:36:24.264Z,81.20
2022-11-25T09:39:30.045Z,77.70
2022-11-25T09:43:06.286Z,78.20
2022-11-25T09:46:38.914Z,76.20
2022-11-25T09:53:08.475Z,73.70
2022-11-25T09:56:46.567Z,77.90
2022-11-25T10:00:01.109Z,68.00
2022-11-25T10:03:38.908Z,70.50
2022-11-25T10:06:56.609Z,70.00
2022-11-25T10:10:02.594Z,66.70
2022-11-25T10:13:08.506Z,64.30
2022-11-25T10:16:26.310Z,67.90
2022-11-25T10:20:00.395Z,69.20
2022-11-25T10:23:28.010Z,61.20
2022-11-25T10:26:37.668Z,60.60
2022-11-25T10:29:39.224Z,59.20
2022-11-25T10:32:44.970Z,61.30
2022-11-25T10:35:51.796Z,62.40
2022-11-25T10:39:23.712Z,60.20
2022-11-25T10:42:28.001Z,63.30
2022-11-25T10:45:40.022Z,61.70
2022-11-25T10:48:53.600Z,61.10
2022-11-25T10:51:57.256Z,60.30
2022-11-25T10:55:11.440Z,53.20
2022-11-25T11:01:47.514Z,56.50
2022-11-25T11:05:08.913Z,49.20
2022-11-25T11:08:19.111Z,59.40
2022-11-25T11:11:23.029Z,55.40
2022-11-25T11:14:29.242Z,58.90
2022-11-25T11:17:36.758Z,56.20
2022-11-25T11:20:48.851Z,62.10
2022-11-25T11:23:55.015Z,54.40
2022-11-25T11:27:04.596Z,53.50
2022-11-25T11:30:15.298Z,53.00
2022-11-25T11:33:43.008Z,51.00
2022-11-25T11:36:50.636Z,55.80
2022-11-25T11:40:21.535Z,57.70
2022-11-25T11:44:05.434Z,60.10
2022-11-25T11:47:16.059Z,50.30
2022-11-25T11:50:31.950Z,49.90
2022-11-25T11:53:53.993Z,47.90
2022-11-25T11:57:06.901Z,48.20
2022-11-25T12:00:12.112Z,48.60
2022-11-25T12:03:22.167Z,47.90
2022-11-25T12:06:27.517Z,47.00
2022-11-25T12:09:32.066Z,48.20
2022-11-25T12:12:40.173Z,48.60
2022-11-25T12:15:46.926Z,47.60
2022-11-25T12:18:54.400Z,49.50
2022-11-25T12:21:55.986Z,48.00
2022-11-25T12:25:08.409Z,45.10
2022-11-25T12:31:34.577Z,32.90
2022-11-25T12:34:43.999Z,38.60
2022-11-25T12:38:04.523Z,43.10
2022-11-25T12:41:18.708Z,46.70
2022-11-25T12:44:37.154Z,51.70
2022-11-25T12:47:39.037Z,49.00
2022-11-25T12:50:59.034Z,48.70
2022-11-25T12:54:04.818Z,49.20
2022-11-25T12:57:25.436Z,50.70
2022-11-25T13:00:46.099Z,46.70
2022-11-25T13:03:50.894Z,50.70
2022-11-25T13:06:52.545Z,47.00
2022-11-25T13:10:19.525Z,50.10
2022-11-25T13:13:33.255Z,40.60
2022-11-25T13:16:35.493Z,47.40
2022-11-25T13:19:37.552Z,42.20
2022-11-25T13:22:39.272Z,46.20
2022-11-25T13:25:42.944Z,45.20
2022-11-25T13:28:45.003Z,48.50
2022-11-25T13:31:58.742Z,47.90
2022-11-25T13:35:31.074Z,54.70
2022-11-25T13:38:49.146Z,51.00
2022-11-25T13:42:04.772Z,44.10
2022-11-25T13:45:29.251Z,44.90
2022-11-25T13:48:36.404Z,45.20
2022-11-25T13:51:48.871Z,50.40
2022-11-25T13:58:26.222Z,42.80
2022-11-25T14:01:30.256Z,46.90
2022-11-25T14:04:51.569Z,48.40
2022-11-25T14:08:19.127Z,52.20
2022-11-25T14:11:43.360Z,57.70
2022-11-25T14:15:04.968Z,61.00
2022-11-25T14:19:03.149Z,52.50
2022-11-25T14:22:07.165Z,62.80
2022-11-25T14:25:29.527Z,60.30
2022-11-25T14:28:51.512Z,65.90
2022-11-25T14:31:58.020Z,67.30
2022-11-25T14:35:03.523Z,63.60
2022-11-25T14:38:12.967Z,61.10
2022-11-25T14:41:27.765Z,59.10
2022-11-25T14:44:45.773Z,59.10
2022-11-25T14:47:47.535Z,60.40
2022-11-25T14:51:00.785Z,60.80
2022-11-25T14:54:06.851Z,59.90
2022-11-25T14:57:08.797Z,59.10
2022-11-25T15:00:14.845Z,60.40
2022-11-25T15:03:19.499Z,61.50
2022-11-25T15:06:21.690Z,55.70
2022-11-25T15:09:27.067Z,59.50
2022-11-25T15:12:32.340Z,63.60
2022-11-25T15:15:34.211Z,56.40
2022-11-25T15:18:36.746Z,59.80
2022-11-25T15:22:07.547Z,64.50
2022-11-25T15:25:13.800Z,75.10
2022-11-25T15:28:16.135Z,70.90
2022-11-25T15:31:20.380Z,65.90
2022-11-25T15:34:23.455Z,72.20
2022-11-25T15:37:25.456Z,70.80
2022-11-25T15:40:37.534Z,69.40
2022-11-25T15:43:44.493Z,69.40
2022-11-25T15:47:05.252Z,64.60
2022-11-25T15:50:28.091Z,63.80
2022-11-25T15:53:36.166Z,67.50
2022-11-25T15:56:43.889Z,71.70
2022-11-25T15:59:45.821Z,66.70
2022-11-25T16:02:47.491Z,77.60
2022-11-25T16:05:56.477Z,73.10
2022-11-25T16:09:00.347Z,75.40
2022-11-25T16:12:06.567Z,65.10
2022-11-25T16:15:17.738Z,71.20
2022-11-25T16:18:39.767Z,65.10
2022-11-25T16:21:50.533Z,73.50
2022-11-25T16:25:00.400Z,75.00
2022-11-25T16:28:03.972Z,71.30
2022-11-25T16:31:05.747Z,61.70
2022-11-25T16:34:18.770Z,73.00
2022-11-25T16:37:20.395Z,79.30
2022-11-25T16:40:23.708Z,81.10
2022-11-25T16:43:27.834Z,83.50
2022-11-25T16:46:29.639Z,86.90
2022-11-25T16:49:31.761Z,97.70
2022-11-25T16:52:33.369Z,98.90
2022-11-25T16:55:36.096Z,100.80
2022-11-25T16:58:37.671Z,92.60
2022-11-25T17:01:39.465Z,100.70
2022-11-25T17:04:41.117Z,94.80
2022-11-25T17:07:42.882Z,95.20
2022-11-25T17:10:45.463Z,93.90
2022-11-25T17:13:50.212Z,101.60
2022-11-25T17:16:51.905Z,93.80
2022-11-25T17:19:53.630Z,97.30
2022-11-25T17:22:55.338Z,98.70
2022-11-25T17:25:57.233Z,99.60
2022-11-25T17:29:02.422Z,91.50
2022-11-25T17:32:06.707Z,90.90
2022-11-25T17:35:18.172Z,92.00
2022-11-25T17:38:21.079Z,92.00
2022-11-25T17:41:27.459Z,101.90
2022-11-25T17:44:32.787Z,115.20
2022-11-25T17:47:34.443Z,110.30
2022-11-25T17:51:07.119Z,107.60
2022-11-25T17:54:03.233Z,107.60
2022-11-25T17:57:16.712Z,117.00
2022-11-25T18:00:52.975Z,117.40
2022-11-25T18:03:56.594Z,118.30
2022-11-25T18:06:58.172Z,113.10
2022-11-25T18:09:59.759Z,110.00
2022-11-25T18:13:42.839Z,109.90
2022-11-25T18:17:06.077Z,118.20
2022-11-25T18:20:23.314Z,120.80
2022-11-25T18:23:24.956Z,115.40
2022-11-25T18:26:26.669Z,111.60
2022-11-25T18:29:29.448Z,103.10
2022-11-25T18:32:31.092Z,108.90
2022-11-25T18:35:36.575Z,96.90
2022-11-25T18:38:42.083Z,101.10
2022-11-25T18:41:45.970Z,95.80
2022-11-25T18:44:47.661Z,85.80
2022-11-25T18:47:49.351Z,94.20
2022-11-25T18:50:54.191Z,92.00
2022-11-25T18:53:55.749Z,92.40
2022-11-25T18:56:57.359Z,92.30
2022-11-25T19:00:30.588Z,81.70
2022-11-25T19:03:24.165Z,86.40
2022-11-25T19:06:29.265Z,97.90
2022-11-25T19:09:31.068Z,92.40
2022-11-25T19:12:32.738Z,95.80
2022-11-25T19:15:36.651Z,92.30
2022-11-25T19:18:38.761Z,92.20
2022-11-25T19:21:40.519Z,96.30
2022-11-25T19:24:42.330Z,99.40
2022-11-25T19:27:56.849Z,99.40
2022-11-25T19:31:00.702Z,98.90
2022-11-25T19:34:02.881Z,96.90
2022-11-25T19:37:04.678Z,88.00
2022-11-25T19:40:13.571Z,93.30
2022-11-25T19:43:15.194Z,94.20
2022-11-25T19:46:25.676Z,88.30
2022-11-25T19:49:30.908Z,95.20
2022-11-25T19:52:37.114Z,72.30
2022-11-25T19:55:38.762Z,86.90
2022-11-25T19:58:40.301Z,91.30
2022-11-25T20:01:44.715Z,92.40
2022-11-25T20:04:48.442Z,92.70
2022-11-25T20:07:51.368Z,84.50
2022-11-25T20:10:53.302Z,77.70
2022-11-25T20:13:56.473Z,78.60
2022-11-25T20:17:00.157Z,78.30
2022-11-25T20:20:28.780Z,73.90
2022-11-25T20:23:43.983Z,68.50
2022-11-25T20:26:55.162Z,76.20
2022-11-25T20:29:59.989Z,76.10
2022-11-25T20:33:01.858Z,77.40
2022-11-25T20:36:09.769Z,74.20
2022-11-25T20:39:18.699Z,68.30
2022-11-25T20:42:21.758Z,68.70
2022-11-25T20:45:23.767Z,79.50
2022-11-25T20:48:26.447Z,80.20
2022-11-25T20:51:37.361Z,71.10
2022-11-25T20:54:39.143Z,80.10
2022-11-25T20:57:41.169Z,82.50
2022-11-25T21:00:42.891Z,76.70
2022-11-25T21:03:45.606Z,80.70
2022-11-25T21:06:47.245Z,87.60
2022-11-25T21:09:49.128Z,84.70
2022-11-25T21:12:51.665Z,80.10
2022-11-25T21:15:53.529Z,87.80
2022-11-25T21:18:55.233Z,88.70
2022-11-25T21:21:57.104Z,65.00
2022-11-25T21:24:58.761Z,83.40
2022-11-25T21:28:01.339Z,83.80
2022-11-25T21:31:07.017Z,74.20
2022-11-25T21:34:13.121Z,71.60
2022-11-25T21:37:17.550Z,71.40
2022-11-25T21:40:40.279Z,67.90
2022-11-25T21:43:44.393Z,70.90
2022-11-25T21:46:46.107Z,70.70
2022-11-25T21:49:48.797Z,70.50
2022-11-25T21:52:50.541Z,83.30
2022-11-25T21:55:52.678Z,75.90
2022-11-25T21:58:56.412Z,85.60
2022-11-25T22:02:01.434Z,84.40
2022-11-25T22:05:14.142Z,90.50
2022-11-25T22:08:16.694Z,89.10
2022-11-25T22:11:21.383Z,89.10
2022-11-25T22:14:33.881Z,93.70
2022-11-25T22:17:35.727Z,97.10
2022-11-25T22:20:37.549Z,93.40
2022-11-25T22:23:41.891Z,97.70
2022-11-25T22:26:46.225Z,92.80
2022-11-25T22:29:48.712Z,89.30
2022-11-25T22:32:59.173Z,92.90
2022-11-25T22:36:01.919Z,94.70
2022-11-25T22:39:25.780Z,96.30
2022-11-25T22:42:30.771Z,83.40
2022-11-25T22:45:33.749Z,78.40
2022-11-25T22:48:38.032Z,81.90
2022-11-25T22:51:39.754Z,88.40
2022-11-25T22:54:41.446Z,96.10
2022-11-25T22:57:43.606Z,98.70
2022-11-25T23:00:46.892Z,87.50
2022-11-25T23:03:48.813Z,97.20
2022-11-25T23:06:51.156Z,103.40
2022-11-25T23:12:55.870Z,96.90
2022-11-25T23:16:03.335Z,101.30
2022-11-25T23:19:06.258Z,92.60
2022-11-25T23:22:11.702Z,98.90
2022-11-25T23:25:17.397Z,88.00
2022-11-25T23:28:19.211Z,91.40
2022-11-25T23:31:20.854Z,103.00
2022-11-25T23:34:22.507Z,99.50
2022-11-25T23:37:24.090Z,103.90
2022-11-25T23:40:26.370Z,81.80
2022-11-25T23:46:32.743Z,89.60
2022-11-25T23:49:43.438Z,98.20
2022-11-25T23:52:45.288Z,84.20
2022-11-25T23:55:47.168Z,88.40
2022-11-25T23:58:51.777Z,83.50
